Time;durP1;ratioP1;P1;durP2;ratioP2;P2;SDS_P1;SDS_P2;PMS_P1;PMS_P2;Temp;Humidity;BMP_temperature;BMP_pressure;BME280_temperature;BME280_humidity;BME280_pressure;Samples;Min_cycle;Max_cycle;Signal;HPM_P1;HPM_P2
2024/02/08 00:01:48;;;;;;;0.20;0.20;;;;;;;;;;5039800;28;20308;-68
2024/02/08 00:04:15;;;;;;;0.20;0.20;;;;;;;;;;5034274;28;20212;-69
2024/02/08 00:06:43;;;;;;;0.20;0.20;;;;;;;;;;5040083;28;20270;-69
2024/02/08 00:09:09;;;;;;;0.20;0.20;;;;;;;;;;5032993;28;20360;-68
2024/02/08 00:11:36;;;;;;;0.20;0.20;;;;;;;;;;5038686;28;20240;-69
2024/02/08 00:14:02;;;;;;;0.20;0.20;;;;;;;;;;5034873;28;20205;-69
2024/02/08 00:16:28;;;;;;;0.20;0.20;;;;;;;;;;5036655;28;20256;-68
2024/02/08 00:18:55;;;;;;;0.20;0.20;;;;;;;;;;5036543;28;20394;-68
2024/02/08 00:21:22;;;;;;;0.20;0.20;;;;;;;;;;5034855;28;20243;-68
2024/02/08 00:23:49;;;;;;;0.20;0.20;;;;;;;;;;5038313;28;20276;-68
2024/02/08 00:26:17;;;;;;;0.20;0.20;;;;;;;;;;5033199;28;20263;-68
2024/02/08 00:28:43;;;;;;;0.20;0.20;;;;;;;;;;5039360;28;20205;-68
2024/02/08 00:31:10;;;;;;;0.20;0.20;;;;;;;;;;5031845;28;20244;-68
2024/02/08 00:33:37;;;;;;;0.20;0.20;;;;;;;;;;5040881;28;20205;-68
2024/02/08 00:36:04;;;;;;;0.20;0.20;;;;;;;;;;5029994;28;20278;-68
2024/02/08 00:38:31;;;;;;;0.20;0.20;;;;;;;;;;5042292;28;20205;-68
2024/02/08 00:40:59;;;;;;;0.23;0.23;;;;;;;;;;5028298;28;20275;-68
2024/02/08 00:43:25;;;;;;;0.20;0.20;;;;;;;;;;5043953;28;20281;-68
2024/02/08 00:45:54;;;;;;;0.20;0.20;;;;;;;;;;5026667;28;20285;-68
2024/02/08 00:48:21;;;;;;;0.20;0.20;;;;;;;;;;5045039;28;20247;-68
2024/02/08 00:50:48;;;;;;;0.20;0.20;;;;;;;;;;5025572;28;20278;-68
2024/02/08 00:53:15;;;;;;;0.20;0.20;;;;;;;;;;5046443;28;20442;-68
2024/02/08 00:55:43;;;;;;;0.20;0.20;;;;;;;;;;5024099;28;20449;-69
2024/02/08 00:58:15;;;;;;;0.20;0.20;;;;;;;;;;5047396;28;20457;-69
2024/02/08 01:00:41;;;;;;;0.20;0.20;;;;;;;;;;5023667;28;20312;-69
2024/02/08 01:03:08;;;;;;;0.20;0.20;;;;;;;;;;5047920;28;20212;-68
2024/02/08 01:05:34;;;;;;;0.20;0.20;;;;;;;;;;5021663;28;20239;-69
2024/02/08 01:08:01;;;;;;;0.20;0.20;;;;;;;;;;5049697;28;20245;-68
2024/02/08 01:10:27;;;;;;;0.20;0.20;;;;;;;;;;5019716;28;20232;-68
2024/02/08 01:12:54;;;;;;;0.20;0.20;;;;;;;;;;5051332;28;20206;-68
2024/02/08 01:15:22;;;;;;;0.20;0.20;;;;;;;;;;5017780;28;20215;-68
2024/02/08 01:17:51;;;;;;;0.20;0.20;;;;;;;;;;5052945;28;20243;-69
2024/02/08 01:20:21;;;;;;;0.20;0.20;;;;;;;;;;5017081;28;20244;-68
2024/02/08 01:22:48;;;;;;;0.20;0.20;;;;;;;;;;5053017;28;20251;-69
2024/02/08 01:25:15;;;;;;;0.20;0.20;;;;;;;;;;5016206;28;20245;-69
2024/02/08 01:27:43;;;;;;;0.20;0.20;;;;;;;;;;5054598;28;20212;-68
2024/02/08 01:30:10;;;;;;;0.20;0.20;;;;;;;;;;5017294;28;20268;-69
2024/02/08 01:32:38;;;;;;;0.20;0.20;;;;;;;;;;5055364;28;20236;-69
2024/02/08 01:35:06;;;;;;;0.20;0.20;;;;;;;;;;5024534;28;20501;-69
2024/02/08 01:37:38;;;;;;;0.20;0.20;;;;;;;;;;5046175;28;20241;-69
2024/02/08 01:40:06;;;;;;;0.20;0.20;;;;;;;;;;5024492;28;20221;-68
2024/02/08 01:42:34;;;;;;;0.30;0.30;;;;;;;;;;5046095;28;20260;-69
2024/02/08 01:45:19;;;;;;;0.20;0.20;;;;;;;;;;5024059;28;20207;-68
2024/02/08 01:47:47;;;;;;;0.20;0.20;;;;;;;;;;5024023;28;20218;-68
2024/02/08 01:50:14;;;;;;;0.20;0.20;;;;;;;;;;5015334;28;20237;-69
2024/02/08 01:52:42;;;;;;;0.20;0.20;;;;;;;;;;5054234;28;20237;-69
2024/02/08 01:55:09;;;;;;;0.20;0.20;;;;;;;;;;5023151;28;20205;-71
2024/02/08 01:57:35;;;;;;;0.20;0.20;;;;;;;;;;5054036;28;20225;-69
2024/02/08 02:00:01;;;;;;;0.20;0.20;;;;;;;;;;5024152;28;20212;-68
2024/02/08 02:02:35;;;;;;;0.20;0.20;;;;;;;;;;5045738;28;20249;-68
2024/02/08 02:05:04;;;;;;;0.20;0.20;;;;;;;;;;5023748;28;20229;-67
2024/02/08 02:07:30;;;;;;;0.20;0.20;;;;;;;;;;5045607;28;20252;-68
2024/02/08 02:09:57;;;;;;;0.20;0.20;;;;;;;;;;5023704;28;20194;-68
2024/02/08 02:12:29;;;;;;;0.20;0.20;;;;;;;;;;5045789;28;20502;-68
2024/02/08 02:14:56;;;;;;;0.20;0.20;;;;;;;;;;5023971;28;20200;-68
2024/02/08 02:17:26;;;;;;;0.20;0.20;;;;;;;;;;5045374;28;20266;-68
2024/02/08 02:20:05;;;;;;;0.20;0.20;;;;;;;;;;5023743;28;20282;-68
2024/02/08 02:22:34;;;;;;;0.20;0.20;;;;;;;;;;5045750;28;20237;-69
2024/02/08 02:25:00;;;;;;;0.20;0.20;;;;;;;;;;5023443;28;20212;-68
2024/02/08 02:27:27;;;;;;;0.20;0.20;;;;;;;;;;5045607;28;20751;-68
2024/02/08 02:29:54;;;;;;;0.63;0.63;;;;;;;;;;5023725;28;20205;-68
2024/02/08 02:32:21;;;;;;;0.20;0.20;;;;;;;;;;5045557;28;20294;-68
2024/02/08 02:34:50;;;;;;;0.20;0.20;;;;;;;;;;5023623;28;20277;-68
2024/02/08 02:37:18;;;;;;;0.20;0.20;;;;;;;;;;5045464;28;20246;-68
2024/02/08 02:39:46;;;;;;;0.20;0.20;;;;;;;;;;5023283;28;20212;-68
2024/02/08 02:42:14;;;;;;;0.20;0.20;;;;;;;;;;5045360;28;20251;-68
2024/02/08 02:44:41;;;;;;;0.20;0.20;;;;;;;;;;5023287;28;20256;-69
2024/02/08 02:47:07;;;;;;;0.20;0.20;;;;;;;;;;5044775;28;20239;-69
2024/02/08 02:49:36;;;;;;;0.20;0.20;;;;;;;;;;5023634;28;20214;-68
2024/02/08 02:52:02;;;;;;;0.27;0.27;;;;;;;;;;5043626;28;20232;-68
2024/02/08 02:54:33;;;;;;;0.20;0.20;;;;;;;;;;5023725;28;20201;-69
2024/02/08 02:57:03;;;;;;;0.50;0.50;;;;;;;;;;5042486;28;20307;-68
2024/02/08 02:59:30;;;;;;;0.20;0.20;;;;;;;;;;5025358;28;20379;-68
2024/02/08 03:01:56;;;;;;;0.20;0.20;;;;;;;;;;5042114;28;20247;-68
2024/02/08 03:04:23;;;;;;;0.20;0.20;;;;;;;;;;5025945;28;20209;-68
2024/02/08 03:06:53;;;;;;;0.20;0.20;;;;;;;;;;5040190;28;20247;-68
2024/02/08 03:09:27;;;;;;;0.20;0.20;;;;;;;;;;5026844;28;20217;-68
2024/02/08 03:11:53;;;;;;;1.03;1.03;;;;;;;;;;5040913;28;20238;-68
2024/02/08 03:14:22;;;;;;;0.20;0.20;;;;;;;;;;5026609;28;20265;-67
2024/02/08 03:16:48;;;;;;;0.20;0.20;;;;;;;;;;5039602;28;20247;-68
2024/02/08 03:19:15;;;;;;;0.20;0.20;;;;;;;;;;5028546;28;20209;-68
2024/02/08 03:21:42;;;;;;;0.20;0.20;;;;;;;;;;5037893;28;20236;-68
2024/02/08 03:24:09;;;;;;;0.20;0.20;;;;;;;;;;5030096;28;20232;-68
2024/02/08 03:26:40;;;;;;;0.20;0.20;;;;;;;;;;5035943;28;20286;-69
2024/02/08 03:29:11;;;;;;;0.20;0.20;;;;;;;;;;5032219;28;20221;-68
2024/02/08 03:31:41;;;;;;;0.20;0.20;;;;;;;;;;5040124;28;20240;-68
2024/02/08 03:34:08;;;;;;;0.20;0.20;;;;;;;;;;5034217;28;20276;-69
2024/02/08 03:36:35;;;;;;;0.20;0.20;;;;;;;;;;5039591;28;20265;-68
2024/02/08 03:39:03;;;;;;;0.20;0.20;;;;;;;;;;5035351;28;20228;-68
2024/02/08 03:41:31;;;;;;;0.20;0.20;;;;;;;;;;5038300;28;20399;-68
2024/02/08 03:44:02;;;;;;;0.20;0.20;;;;;;;;;;5036181;28;20220;-68
2024/02/08 03:46:29;;;;;;;0.20;0.20;;;;;;;;;;5037587;28;20246;-68
2024/02/08 03:48:57;;;;;;;0.20;0.20;;;;;;;;;;5036767;28;20278;-68
2024/02/08 03:51:24;;;;;;;0.20;0.20;;;;;;;;;;5036037;28;20239;-69
2024/02/08 03:53:52;;;;;;;0.20;0.20;;;;;;;;;;5038287;28;20206;-69
2024/02/08 03:56:26;;;;;;;0.20;0.20;;;;;;;;;;5034852;28;20634;-69
2024/02/08 03:58:52;;;;;;;0.20;0.20;;;;;;;;;;5037564;28;20262;-68
2024/02/08 04:01:21;;;;;;;0.20;0.20;;;;;;;;;;5034629;28;20247;-69
2024/02/08 04:03:55;;;;;;;0.20;0.20;;;;;;;;;;5038756;28;20202;-68
2024/02/08 04:06:49;;;;;;;0.20;0.20;;;;;;;;;;5035587;28;20250;-69
2024/02/08 04:09:33;;;;;;;0.20;0.20;;;;;;;;;;5031168;28;20543;-69
2024/02/08 04:53:37;;;;;;;0.20;0.20;;;;;;;;;;5045500;28;20493;-69
2024/02/08 04:56:08;;;;;;;0.23;0.23;;;;;;;;;;5029556;28;20260;-69
2024/02/08 04:58:35;;;;;;;0.20;0.20;;;;;;;;;;5041180;28;20411;-69
2024/02/08 05:01:01;;;;;;;0.20;0.20;;;;;;;;;;5028605;28;20246;-69
2024/02/08 05:03:28;;;;;;;0.20;0.20;;;;;;;;;;5042546;28;20212;-69
2024/02/08 05:05:55;;;;;;;0.20;0.20;;;;;;;;;;5023934;28;20270;-68
2024/02/08 05:08:21;;;;;;;0.20;0.20;;;;;;;;;;5046770;28;20436;-69
2024/02/08 05:10:52;;;;;;;0.20;0.20;;;;;;;;;;5025662;28;20239;-69
2024/02/08 05:13:24;;;;;;;0.20;0.20;;;;;;;;;;5044499;28;20232;-68
2024/02/08 05:15:50;;;;;;;0.20;0.20;;;;;;;;;;5025676;28;20286;-69
2024/02/08 05:18:21;;;;;;;0.20;0.20;;;;;;;;;;5045165;28;20212;-69
2024/02/08 05:20:48;;;;;;;0.20;0.20;;;;;;;;;;5024866;28;20266;-67
2024/02/08 05:23:14;;;;;;;0.20;0.20;;;;;;;;;;5045743;28;20207;-68
2024/02/08 05:25:44;;;;;;;0.20;0.20;;;;;;;;;;5022989;28;20241;-68
2024/02/08 05:28:12;;;;;;;0.20;0.20;;;;;;;;;;5046831;28;20208;-68
2024/02/08 05:30:41;;;;;;;0.20;0.20;;;;;;;;;;5022532;28;20239;-68
2024/02/08 05:33:08;;;;;;;0.20;0.20;;;;;;;;;;5047497;28;20230;-69
2024/02/08 05:35:35;;;;;;;0.20;0.20;;;;;;;;;;5021675;28;20244;-69
2024/02/08 05:38:01;;;;;;;0.20;0.20;;;;;;;;;;5048780;28;20282;-69
2024/02/08 05:40:30;;;;;;;0.70;0.70;;;;;;;;;;5019180;28;20244;-69
2024/02/08 05:42:57;;;;;;;0.20;0.20;;;;;;;;;;5050210;28;20202;-68
2024/02/08 05:45:30;;;;;;;0.20;0.20;;;;;;;;;;5018268;28;20512;-69
2024/02/08 05:48:00;;;;;;;0.20;0.20;;;;;;;;;;5050000;28;20201;-68
2024/02/08 05:50:26;;;;;;;0.20;0.20;;;;;;;;;;5018456;28;20200;-69
2024/02/08 05:52:56;;;;;;;0.20;0.20;;;;;;;;;;5050760;28;20472;-68
2024/02/08 05:55:24;;;;;;;0.20;0.20;;;;;;;;;;5017761;28;20394;-69
2024/02/08 05:57:52;;;;;;;0.20;0.20;;;;;;;;;;5051903;28;20237;-69
2024/02/08 06:00:32;;;;;;;0.20;0.20;;;;;;;;;;5015140;28;20272;-69
2024/02/08 06:03:01;;;;;;;0.20;0.20;;;;;;;;;;5050904;28;20201;-69
2024/02/08 06:05:28;;;;;;;0.20;0.20;;;;;;;;;;5018792;28;20233;-69
2024/02/08 06:07:56;;;;;;;0.20;0.20;;;;;;;;;;5050227;28;20237;-69
2024/02/08 06:10:23;;;;;;;0.20;0.20;;;;;;;;;;5017366;28;20205;-70
2024/02/08 06:12:59;;;;;;;0.20;0.20;;;;;;;;;;5051349;28;20296;-69
2024/02/08 06:15:32;;;;;;;0.20;0.20;;;;;;;;;;5018222;28;20216;-69
2024/02/08 06:18:04;;;;;;;0.20;0.20;;;;;;;;;;5049371;28;20215;-70
2024/02/08 06:20:36;;;;;;;0.20;0.20;;;;;;;;;;5019562;28;20290;-71
2024/02/08 06:23:15;;;;;;;0.20;0.20;;;;;;;;;;5048293;28;20243;-72
2024/02/08 06:25:45;;;;;;;0.20;0.20;;;;;;;;;;5022671;28;20304;-71
2024/02/08 06:28:10;;;;;;;0.20;0.20;;;;;;;;;;5045906;28;20253;-70
2024/02/08 06:30:36;;;;;;;0.20;0.20;;;;;;;;;;5021253;28;20480;-70
2024/02/08 06:33:07;;;;;;;0.20;0.20;;;;;;;;;;5047707;28;20233;-71
2024/02/08 06:35:36;;;;;;;0.20;0.20;;;;;;;;;;5020113;28;20244;-70
2024/02/08 06:38:02;;;;;;;0.20;0.20;;;;;;;;;;5048200;28;20206;-71
2024/02/08 06:40:39;;;;;;;0.20;0.20;;;;;;;;;;5019086;28;20469;-70
2024/02/08 06:48:48;;;;;;;0.20;0.20;;;;;;;;;;5039550;28;20238;-71
2024/02/08 07:37:46;;;;;;;0.20;0.20;;;;;;;;;;5026474;28;20205;-71
2024/02/08 07:40:23;;;;;;;0.20;0.20;;;;;;;;;;5017740;28;20207;-71
2024/02/08 07:42:52;;;;;;;0.20;0.20;;;;;;;;;;5054564;28;20393;-71
2024/02/08 07:45:26;;;;;;;0.83;0.83;;;;;;;;;;5019003;28;20278;-71
2024/02/08 07:47:58;;;;;;;0.20;0.20;;;;;;;;;;5053539;28;20206;-71
2024/02/08 07:50:35;;;;;;;0.20;0.20;;;;;;;;;;5020838;28;20257;-72
2024/02/08 07:53:08;;;;;;;0.20;0.20;;;;;;;;;;5051004;28;20252;-72
2024/02/08 07:55:53;;;;;;;0.20;0.20;;;;;;;;;;5023487;28;20246;-73
2024/02/08 07:58:20;;;;;;;0.20;0.20;;;;;;;;;;5046171;28;20207;-74
2024/02/08 08:00:49;;;;;;;0.20;0.20;;;;;;;;;;5026224;28;20245;-73
2024/02/08 08:03:16;;;;;;;0.20;0.20;;;;;;;;;;5047054;28;20240;-73
2024/02/08 08:05:44;;;;;;;0.20;0.20;;;;;;;;;;5025119;28;20246;-73
2024/02/08 08:08:24;;;;;;;0.20;0.20;;;;;;;;;;5048191;28;20304;-73
2024/02/08 08:10:56;;;;;;;0.20;0.20;;;;;;;;;;5026136;28;20505;-72
2024/02/08 08:13:50;;;;;;;0.20;0.20;;;;;;;;;;5044331;28;20230;-72
2024/02/08 08:18:56;;;;;;;0.20;0.20;;;;;;;;;;5037190;28;20503;-72
2024/02/08 08:21:25;;;;;;;0.20;0.20;;;;;;;;;;5035534;28;20248;-72
2024/02/08 08:23:59;;;;;;;4.60;4.37;;;;;;;;;;5037233;28;20284;-72
2024/02/08 08:26:37;;;;;;;0.20;0.20;;;;;;;;;;5036104;28;20247;-72
2024/02/08 08:29:04;;;;;;;0.20;0.20;;;;;;;;;;5034273;28;20403;-72
2024/02/08 08:31:46;;;;;;;0.20;0.20;;;;;;;;;;5037484;28;20263;-73
2024/02/08 08:37:02;;;;;;;0.20;0.20;;;;;;;;;;5043941;28;20311;-72
2024/02/08 08:39:46;;;;;;;0.20;0.20;;;;;;;;;;5027252;28;20202;-72
2024/02/08 08:42:16;;;;;;;0.30;0.30;;;;;;;;;;5047348;28;20430;-72
2024/02/08 08:44:48;;;;;;;0.20;0.20;;;;;;;;;;5025252;28;20246;-71
2024/02/08 08:47:15;;;;;;;0.20;0.20;;;;;;;;;;5047473;28;20237;-71
2024/02/08 08:49:42;;;;;;;0.20;0.20;;;;;;;;;;5025561;28;20206;-71
2024/02/08 08:52:09;;;;;;;0.20;0.20;;;;;;;;;;5046759;28;20494;-71
2024/02/08 08:54:42;;;;;;;0.20;0.20;;;;;;;;;;5025374;28;20282;-71
2024/02/08 08:57:12;;;;;;;0.20;0.20;;;;;;;;;;5046954;28;20255;-71
2024/02/08 08:59:42;;;;;;;0.50;0.50;;;;;;;;;;5025276;28;20447;-72
2024/02/08 09:02:09;;;;;;;0.20;0.20;;;;;;;;;;5046860;28;20268;-71
2024/02/08 09:04:35;;;;;;;0.20;0.20;;;;;;;;;;5025263;28;20272;-71
2024/02/08 09:07:10;;;;;;;0.20;0.20;;;;;;;;;;5044643;28;20241;-71
2024/02/08 09:10:00;;;;;;;0.20;0.20;;;;;;;;;;5025165;28;20194;-71
2024/02/08 09:12:30;;;;;;;0.20;0.20;;;;;;;;;;5046813;28;20241;-71
2024/02/08 09:14:59;;;;;;;0.20;0.20;;;;;;;;;;5024743;28;20537;-72
2024/02/08 09:17:40;;;;;;;0.20;0.20;;;;;;;;;;5046740;28;20646;-72
2024/02/08 09:20:19;;;;;;;0.20;0.20;;;;;;;;;;5024947;28;20195;-71
2024/02/08 09:22:46;;;;;;;0.20;0.20;;;;;;;;;;5024307;28;20213;-71
2024/02/08 09:25:14;;;;;;;0.10;0.10;;;;;;;;;;5014570;28;20462;-72
2024/02/08 09:27:47;;;;;;;0.20;0.20;;;;;;;;;;5019107;28;20213;-72
2024/02/08 09:30:15;;;;;;;0.20;0.20;;;;;;;;;;4996468;28;20194;-72
2024/02/08 09:32:44;;;;;;;0.20;0.20;;;;;;;;;;5034533;28;20542;-72
2024/02/08 09:35:12;;;;;;;0.20;0.20;;;;;;;;;;4995270;28;20580;-72
2024/02/08 09:37:39;;;;;;;0.20;0.20;;;;;;;;;;5035203;28;20209;-71
2024/02/08 09:40:18;;;;;;;0.20;0.20;;;;;;;;;;5004720;28;20208;-71
2024/02/08 09:42:54;;;;;;;0.20;0.20;;;;;;;;;;5004359;28;20200;-71
2024/02/08 09:45:42;;;;;;;0.20;0.20;;;;;;;;;;4997904;28;20194;-70
2024/02/08 09:48:11;;;;;;;0.10;0.10;;;;;;;;;;5027487;28;20399;-70
2024/02/08 09:50:43;;;;;;;0.10;0.10;;;;;;;;;;5002350;28;20241;-70
2024/02/08 09:53:18;;;;;;;0.20;0.20;;;;;;;;;;5026836;28;20228;-70
2024/02/08 09:55:47;;;;;;;0.20;0.20;;;;;;;;;;5003682;28;20239;-71
2024/02/08 09:58:31;;;;;;;0.10;0.10;;;;;;;;;;5026139;28;20385;-71
2024/02/08 10:00:58;;;;;;;0.20;0.20;;;;;;;;;;5007409;28;20606;-72
2024/02/08 10:03:31;;;;;;;0.20;0.20;;;;;;;;;;5022904;28;20202;-70
2024/02/08 10:05:59;;;;;;;0.10;0.10;;;;;;;;;;5007444;28;20896;-71
2024/02/08 10:08:28;;;;;;;0.10;0.10;;;;;;;;;;5022302;28;20563;-70
2024/02/08 10:11:11;;;;;;;0.20;0.20;;;;;;;;;;5006278;28;20240;-71
2024/02/08 10:13:53;;;;;;;0.10;0.10;;;;;;;;;;5019416;28;20233;-71
2024/02/08 10:16:29;;;;;;;0.10;0.10;;;;;;;;;;5012683;28;20243;-70
2024/02/08 10:19:02;;;;;;;0.20;0.20;;;;;;;;;;5014601;28;20240;-71
2024/02/08 10:21:29;;;;;;;0.20;0.20;;;;;;;;;;5015290;28;20464;-71
2024/02/08 10:23:58;;;;;;;0.20;0.20;;;;;;;;;;5014039;28;20205;-71
2024/02/08 10:26:26;;;;;;;0.20;0.20;;;;;;;;;;5014044;28;20250;-71
2024/02/08 10:28:55;;;;;;;0.10;0.10;;;;;;;;;;5014608;28;20203;-71
2024/02/08 10:31:24;;;;;;;0.10;0.10;;;;;;;;;;5012972;28;20308;-71
2024/02/08 10:33:57;;;;;;;0.20;0.20;;;;;;;;;;5015651;28;20233;-72
2024/02/08 10:36:31;;;;;;;0.20;0.20;;;;;;;;;;5013811;28;20240;-71
2024/02/08 10:39:03;;;;;;;0.10;0.10;;;;;;;;;;5017548;28;20260;-71
2024/02/08 10:41:36;;;;;;;0.10;0.10;;;;;;;;;;5019481;28;20244;-71
2024/02/08 10:44:05;;;;;;;0.20;0.20;;;;;;;;;;5016613;28;20235;-71
2024/02/08 10:46:32;;;;;;;0.10;0.10;;;;;;;;;;5019471;28;20515;-71
2024/02/08 10:49:00;;;;;;;0.10;0.10;;;;;;;;;;5017696;28;20223;-71
2024/02/08 10:51:27;;;;;;;0.10;0.10;;;;;;;;;;5018292;28;20351;-71
2024/02/08 10:54:04;;;;;;;0.10;0.10;;;;;;;;;;5018301;28;20299;-71
2024/02/08 10:56:40;;;;;;;0.10;0.10;;;;;;;;;;5018938;28;20319;-72
2024/02/08 10:59:14;;;;;;;0.10;0.10;;;;;;;;;;5015007;28;20209;-71
2024/02/08 11:02:00;;;;;;;0.10;0.10;;;;;;;;;;5021542;28;20240;-71
2024/02/08 11:04:30;;;;;;;0.10;0.10;;;;;;;;;;5010047;28;20543;-71
2024/02/08 11:07:06;;;;;;;0.10;0.10;;;;;;;;;;5025637;28;20240;-71
2024/02/08 11:09:33;;;;;;;0.10;0.10;;;;;;;;;;5008389;28;20429;-71
2024/02/08 11:12:03;;;;;;;0.20;0.20;;;;;;;;;;5026438;28;20300;-72
2024/02/08 11:14:33;;;;;;;0.10;0.10;;;;;;;;;;5008994;28;20218;-71
2024/02/08 11:17:03;;;;;;;0.10;0.10;;;;;;;;;;5026331;28;20587;-71
2024/02/08 11:19:34;;;;;;;0.10;0.10;;;;;;;;;;5008959;28;20360;-71
2024/02/08 11:22:18;;;;;;;0.10;0.10;;;;;;;;;;5026490;28;20242;-71
2024/02/08 11:24:57;;;;;;;0.10;0.10;;;;;;;;;;5007242;28;20202;-71
2024/02/08 11:27:27;;;;;;;0.10;0.10;;;;;;;;;;5028852;28;20304;-71
2024/02/08 11:29:57;;;;;;;0.10;0.10;;;;;;;;;;5007388;28;20200;-72
2024/02/08 11:32:24;;;;;;;0.10;0.10;;;;;;;;;;5028810;28;20284;-72
2024/02/08 11:34:54;;;;;;;0.10;0.10;;;;;;;;;;5006844;28;20458;-72
2024/02/08 11:37:28;;;;;;;0.10;0.10;;;;;;;;;;5028794;28;20273;-72
2024/02/08 11:39:59;;;;;;;0.10;0.10;;;;;;;;;;5006851;28;20206;-72
2024/02/08 11:42:31;;;;;;;0.10;0.10;;;;;;;;;;5028642;28;20409;-72
2024/02/08 11:45:01;;;;;;;0.10;0.10;;;;;;;;;;5007231;28;20265;-72
2024/02/08 11:47:29;;;;;;;0.10;0.10;;;;;;;;;;5028582;28;20264;-72
2024/02/08 11:50:00;;;;;;;0.10;0.10;;;;;;;;;;5005909;28;20435;-71
2024/02/08 11:52:27;;;;;;;0.10;0.10;;;;;;;;;;5028700;28;20249;-72
2024/02/08 11:55:08;;;;;;;0.20;0.20;;;;;;;;;;5006873;28;20480;-71
2024/02/08 11:57:40;;;;;;;0.17;0.17;;;;;;;;;;4995605;28;20408;-72
2024/02/08 12:00:16;;;;;;;0.10;0.10;;;;;;;;;;5006783;28;20278;-71
2024/02/08 12:02:47;;;;;;;0.10;0.10;;;;;;;;;;4995332;28;20214;-71
2024/02/08 12:05:15;;;;;;;0.10;0.10;;;;;;;;;;4997794;28;20190;-72
2024/02/08 12:07:45;;;;;;;0.10;0.10;;;;;;;;;;5035634;28;20640;-71
2024/02/08 12:10:14;;;;;;;0.10;0.10;;;;;;;;;;4997080;28;20213;-73
2024/02/08 12:12:41;;;;;;;0.10;0.10;;;;;;;;;;5036200;28;20206;-72
2024/02/08 12:15:09;;;;;;;0.10;0.10;;;;;;;;;;5006375;28;20225;-72
2024/02/08 12:17:36;;;;;;;0.20;0.20;;;;;;;;;;4994944;28;20201;-72
2024/02/08 12:20:02;;;;;;;0.10;0.10;;;;;;;;;;5006134;28;20227;-72
2024/02/08 12:22:29;;;;;;;0.10;0.10;;;;;;;;;;5027952;28;20245;-73
2024/02/08 12:24:59;;;;;;;0.20;0.20;;;;;;;;;;5005927;28;20240;-74
2024/02/08 12:27:28;;;;;;;0.10;0.10;;;;;;;;;;5028064;28;20249;-72
2024/02/08 12:29:56;;;;;;;0.10;0.10;;;;;;;;;;5005986;28;20245;-72
2024/02/08 12:32:27;;;;;;;0.10;0.10;;;;;;;;;;5027814;28;20308;-72
2024/02/08 12:34:54;;;;;;;0.10;0.10;;;;;;;;;;5005825;28;20290;-71
2024/02/08 12:37:22;;;;;;;0.10;0.10;;;;;;;;;;5027627;28;20245;-71
2024/02/08 12:39:49;;;;;;;0.10;0.10;;;;;;;;;;5005841;28;20236;-71
2024/02/08 12:42:18;;;;;;;0.10;0.10;;;;;;;;;;5027554;28;20248;-71
2024/02/08 12:44:48;;;;;;;0.10;0.10;;;;;;;;;;5005761;28;20202;-71
2024/02/08 12:47:17;;;;;;;0.10;0.10;;;;;;;;;;5027443;28;20236;-72
2024/02/08 12:49:46;;;;;;;0.10;0.10;;;;;;;;;;5005500;28;20232;-71
2024/02/08 12:52:16;;;;;;;0.10;0.10;;;;;;;;;;5027246;28;20585;-71
2024/02/08 12:54:42;;;;;;;0.10;0.10;;;;;;;;;;5005727;28;20549;-71
2024/02/08 12:57:10;;;;;;;0.13;0.13;;;;;;;;;;5026997;28;20493;-72
2024/02/08 12:59:37;;;;;;;0.10;0.10;;;;;;;;;;5005778;28;20216;-72
2024/02/08 13:02:09;;;;;;;0.10;0.10;;;;;;;;;;5025369;28;20601;-72
2024/02/08 13:04:36;;;;;;;0.10;0.10;;;;;;;;;;5005694;28;20190;-73
2024/02/08 13:07:05;;;;;;;0.10;0.10;;;;;;;;;;5025267;28;20244;-72
2024/02/08 13:09:37;;;;;;;0.10;0.10;;;;;;;;;;5006559;28;20194;-72
2024/02/08 13:12:14;;;;;;;0.10;0.10;;;;;;;;;;5025396;28;20241;-72
2024/02/08 13:14:48;;;;;;;0.10;0.10;;;;;;;;;;5005487;28;20217;-72
2024/02/08 13:17:18;;;;;;;0.10;0.10;;;;;;;;;;5027161;28;20285;-72
2024/02/08 13:19:45;;;;;;;0.10;0.10;;;;;;;;;;5005468;28;20194;-72
2024/02/08 13:22:14;;;;;;;0.13;0.13;;;;;;;;;;5026841;28;20333;-72
2024/02/08 13:24:40;;;;;;;0.10;0.10;;;;;;;;;;5004955;28;20248;-72
2024/02/08 13:27:06;;;;;;;0.97;0.97;;;;;;;;;;5025921;28;20240;-71
2024/02/08 13:29:34;;;;;;;0.10;0.10;;;;;;;;;;5005330;28;20247;-71
2024/02/08 13:32:01;;;;;;;0.10;0.10;;;;;;;;;;5024334;28;20242;-73
2024/02/08 13:34:27;;;;;;;0.10;0.10;;;;;;;;;;5006725;28;20253;-72
2024/02/08 13:36:58;;;;;;;0.10;0.10;;;;;;;;;;5022229;28;20514;-72
2024/02/08 13:39:26;;;;;;;0.13;0.13;;;;;;;;;;5007484;28;20240;-73
2024/02/08 13:41:52;;;;;;;0.20;0.20;;;;;;;;;;5021800;28;20262;-73
2024/02/08 13:44:20;;;;;;;0.10;0.10;;;;;;;;;;5008833;28;20253;-73
2024/02/08 13:46:48;;;;;;;0.10;0.10;;;;;;;;;;5020270;28;20460;-72
2024/02/08 13:49:15;;;;;;;0.10;0.10;;;;;;;;;;5010153;28;20280;-72
2024/02/08 13:51:44;;;;;;;0.13;0.13;;;;;;;;;;5018812;28;20282;-73
2024/02/08 13:54:12;;;;;;;0.20;0.20;;;;;;;;;;5010667;28;20399;-73
2024/02/08 13:56:40;;;;;;;0.10;0.10;;;;;;;;;;5017846;28;20240;-73
2024/02/08 13:59:07;;;;;;;0.10;0.10;;;;;;;;;;5011874;28;20210;-72
2024/02/08 14:01:33;;;;;;;0.10;0.10;;;;;;;;;;5016637;28;20325;-72
2024/02/08 14:04:03;;;;;;;0.10;0.10;;;;;;;;;;5013764;28;20206;-72
2024/02/08 14:06:31;;;;;;;0.20;0.20;;;;;;;;;;5015535;28;20255;-72
2024/02/08 14:09:19;;;;;;;0.10;0.10;;;;;;;;;;5013989;28;20254;-73
2024/02/08 14:11:51;;;;;;;0.10;0.10;;;;;;;;;;5018534;28;20236;-73
2024/02/08 14:14:18;;;;;;;0.10;0.10;;;;;;;;;;5009211;28;20217;-73
2024/02/08 14:16:52;;;;;;;0.20;0.20;;;;;;;;;;5019550;28;20469;-73
2024/02/08 14:19:21;;;;;;;0.10;0.10;;;;;;;;;;5008744;28;20197;-73
2024/02/08 14:21:51;;;;;;;0.10;0.10;;;;;;;;;;5020325;28;20301;-73
2024/02/08 14:24:18;;;;;;;0.10;0.10;;;;;;;;;;5008636;28;20205;-73
2024/02/08 14:26:45;;;;;;;0.10;0.10;;;;;;;;;;5019119;28;20254;-73
2024/02/08 14:29:13;;;;;;;0.20;0.20;;;;;;;;;;5010376;28;20279;-73
2024/02/08 14:31:41;;;;;;;0.10;0.10;;;;;;;;;;5017989;28;20270;-73
2024/02/08 14:34:08;;;;;;;0.20;0.20;;;;;;;;;;5011244;28;20204;-72
2024/02/08 14:36:35;;;;;;;0.10;0.10;;;;;;;;;;5016730;28;20295;-73
2024/02/08 14:39:01;;;;;;;0.10;0.10;;;;;;;;;;5012762;28;20216;-73
2024/02/08 14:41:32;;;;;;;0.10;0.10;;;;;;;;;;5014962;28;20496;-73
2024/02/08 14:44:07;;;;;;;0.10;0.10;;;;;;;;;;5013274;28;20231;-73
2024/02/08 14:46:34;;;;;;;0.10;0.10;;;;;;;;;;5016346;28;20313;-73
2024/02/08 14:49:05;;;;;;;0.20;0.20;;;;;;;;;;5012945;28;20248;-73
2024/02/08 14:51:36;;;;;;;0.10;0.10;;;;;;;;;;5015743;28;20244;-73
2024/02/08 14:54:03;;;;;;;0.20;0.20;;;;;;;;;;5012495;28;20276;-73
2024/02/08 14:56:29;;;;;;;0.10;0.10;;;;;;;;;;5014953;28;20616;-73
2024/02/08 14:59:09;;;;;;;0.10;0.10;;;;;;;;;;5014377;28;20234;-73
2024/02/08 15:01:39;;;;;;;0.20;0.20;;;;;;;;;;5016571;28;20265;-73
2024/02/08 15:04:15;;;;;;;0.20;0.20;;;;;;;;;;5011862;28;20240;-73
2024/02/08 15:06:42;;;;;;;0.10;0.10;;;;;;;;;;5018336;28;20242;-73
2024/02/08 15:12:00;;;;;;;0.20;0.20;;;;;;;;;;5020068;28;20624;-73
2024/02/08 15:14:35;;;;;;;0.10;0.10;;;;;;;;;;5005718;28;20258;-73
2024/02/08 15:17:07;;;;;;;0.10;0.10;;;;;;;;;;5023294;28;20249;-73
2024/02/08 15:19:34;;;;;;;0.10;0.10;;;;;;;;;;5004107;28;20196;-73
2024/02/08 15:22:18;;;;;;;0.10;0.10;;;;;;;;;;5023044;28;20246;-73
2024/02/08 15:24:46;;;;;;;0.20;0.20;;;;;;;;;;5006626;28;20194;-73
2024/02/08 15:27:18;;;;;;;0.10;0.10;;;;;;;;;;5029043;28;20289;-73
2024/02/08 15:29:45;;;;;;;0.10;0.10;;;;;;;;;;5006935;28;20232;-73
2024/02/08 15:32:17;;;;;;;0.10;0.10;;;;;;;;;;5029030;28;20334;-74
2024/02/08 15:34:58;;;;;;;0.20;0.20;;;;;;;;;;5006669;28;20234;-73
2024/02/08 15:37:41;;;;;;;0.20;0.20;;;;;;;;;;5028979;28;20242;-74
2024/02/08 15:40:10;;;;;;;0.20;0.20;;;;;;;;;;5006935;28;20194;-73
2024/02/08 15:42:39;;;;;;;0.20;0.20;;;;;;;;;;4995739;28;20204;-73
2024/02/08 15:45:10;;;;;;;0.10;0.10;;;;;;;;;;5007107;28;20394;-73
2024/02/08 15:47:54;;;;;;;0.20;0.20;;;;;;;;;;4995412;28;20208;-74
2024/02/08 15:50:24;;;;;;;0.20;0.20;;;;;;;;;;5000212;28;20194;-73
2024/02/08 15:52:53;;;;;;;0.20;0.20;;;;;;;;;;5033961;28;20230;-73
2024/02/08 15:55:19;;;;;;;0.20;0.20;;;;;;;;;;4999550;28;20553;-74
2024/02/08 15:57:53;;;;;;;0.20;0.20;;;;;;;;;;5035237;28;20278;-73
2024/02/08 16:01:01;;;;;;;0.20;0.20;;;;;;;;;;4999768;28;20390;-74
2024/02/08 16:03:17;;;;;;;0.20;0.20;;;;;;;;;;5028344;28;20230;-73
2024/02/08 16:05:44;;;;;;;0.20;0.20;;;;;;;;;;5005500;28;20244;-74
2024/02/08 16:08:13;;;;;;;0.10;0.10;;;;;;;;;;5028353;28;20250;-74
2024/02/08 16:10:44;;;;;;;0.20;0.20;;;;;;;;;;5004666;28;20241;-72
2024/02/08 16:13:11;;;;;;;0.20;0.20;;;;;;;;;;5028355;28;20216;-73
2024/02/08 16:15:55;;;;;;;0.20;0.20;;;;;;;;;;5004031;28;20260;-74
2024/02/08 16:18:24;;;;;;;0.20;0.20;;;;;;;;;;5025580;28;20560;-73
2024/02/08 16:20:54;;;;;;;0.20;0.20;;;;;;;;;;5007279;28;20287;-73
2024/02/08 16:23:23;;;;;;;0.20;0.20;;;;;;;;;;5025935;28;20249;-74
2024/02/08 16:26:05;;;;;;;0.20;0.20;;;;;;;;;;5007123;28;20248;-73
2024/02/08 16:28:37;;;;;;;0.13;0.13;;;;;;;;;;5022814;28;20234;-73
2024/02/08 16:31:10;;;;;;;0.20;0.20;;;;;;;;;;5010728;28;20252;-73
2024/02/08 16:33:47;;;;;;;0.20;0.20;;;;;;;;;;5021562;28;20400;-72
2024/02/08 16:36:33;;;;;;;0.20;0.20;;;;;;;;;;5012516;28;20236;-73
2024/02/08 16:39:06;;;;;;;0.20;0.20;;;;;;;;;;5015023;28;20265;-72
2024/02/08 16:41:34;;;;;;;0.20;0.20;;;;;;;;;;5018331;28;20250;-77
2024/02/08 16:44:03;;;;;;;0.20;0.20;;;;;;;;;;5014858;28;20206;-73